Portada
METAR-TAF:

METAR-TAF

Aeroports :

Phrae, Tailàndia

latitud: 18-10N, longitud: 100-10E, altitud: 161 m

Observació

L'informe es va fer fa 23 hores i 37 minuts, a les 11:00 UTC
Vent 2 kt amb direcció variable
Temperatura 29°C
Humitat 70%
Pressió 1007 hPa
Visibilitat 10 km o més
Escasses núvols a una alçada de 2200 ft

METAR: VTCP 281100Z VRB02KT 9999 FEW022 29/23 Q1007 NOSIG

Hora: 17:37 (10:37 UTC)

Pronòstic

L'informe es va fer fa 17 hores i 37 minuts, a les 17:00 UTC
Pronòstic vàlid del 28 a les 18 UTC al 29 a les 18 UTC
Vent 5 kt del Nord/Nord-Est
Visibilitat 10 km o més
Cel ennuvolat a una alçada de 2200 ft
Temporalment
l' 29 a les 08 UTC al 29 a les 14 UTC
Vent 15 kt del Est/Nord-Est
Visibilitat: 3000 m
Escasses núvols a una alçada de 1500 ft
Cel ennuvolat a una alçada de 2000 ft
pluja

TAF: VTCP 281700Z 2818/2918 03005KT 9999 BKN022 TEMPO 2908/2914 07015KT 3000 RA FEW015 BKN020

Observacions i pronòstics meteorològics de més de 4000 aeroports (METAR i TAF).

Les estacions disponibles són els punts grocs i vermells al mapa.

Posi el ratolí al punt desitjat per veure el nom de l'estació.

Feu clic per veure les observacions i els pronòstics meteorològics.

Per canviar el mapa: feu clic els botons verds amb una creu de color negre per apropar; al botó verd amb un guió per allunyar la imatge; o en les fletxes verdes per a mapes adjacents.


METAR-TAF: